Time;durP1;ratioP1;P1;durP2;ratioP2;P2;SDS_P1;SDS_P2;PMS_P1;PMS_P2;Temp;Humidity;BMP_temperature;BMP_pressure;BME280_temperature;BME280_humidity;BME280_pressure;Samples;Min_cycle;Max_cycle;Signal;HPM_P1;HPM_P2
2022/01/29 00:01:42;;;;;;;87.93;34.50;;;;;;;-0.35;100.00;102241.78;4971860;28;20059;-74
2022/01/29 00:04:11;;;;;;;78.47;34.08;;;;;;;-0.28;100.00;102235.53;4971945;28;20051;-73
2022/01/29 00:06:39;;;;;;;82.13;34.83;;;;;;;-0.36;100.00;102235.53;4972323;28;20055;-73
2022/01/29 00:09:08;;;;;;;80.47;33.05;;;;;;;-0.44;100.00;102241.75;4972053;28;20047;-73
2022/01/29 00:11:37;;;;;;;83.38;34.05;;;;;;;-0.50;100.00;102222.75;4972884;28;20490;-74
2022/01/29 00:14:06;;;;;;;77.57;32.90;;;;;;;-0.57;100.00;102231.47;4972088;28;20125;-74
2022/01/29 00:16:34;;;;;;;85.82;33.53;;;;;;;-0.60;100.00;102222.88;4956593;28;20051;-73
2022/01/29 00:19:02;;;;;;;92.03;35.45;;;;;;;-0.63;100.00;102224.03;4971745;28;20054;-74
2022/01/29 00:21:30;;;;;;;80.07;31.77;;;;;;;-0.65;100.00;102218.00;4972895;28;20039;-74
2022/01/29 00:23:58;;;;;;;87.55;34.47;;;;;;;-0.59;100.00;102220.03;4943378;28;20495;-73
2022/01/29 00:26:27;;;;;;;92.53;35.22;;;;;;;-0.34;100.00;102232.69;4956481;28;20047;-74
2022/01/29 00:28:57;;;;;;;84.97;35.28;;;;;;;-0.30;100.00;102225.94;4949587;28;20124;-74
2022/01/29 00:31:26;;;;;;;78.32;32.13;;;;;;;-0.30;100.00;102216.03;4951549;28;20405;-74
2022/01/29 00:33:55;;;;;;;70.00;33.42;;;;;;;-0.32;100.00;102217.22;4972369;28;20050;-73
2022/01/29 00:36:22;;;;;;;73.13;28.77;;;;;;;-0.24;100.00;102217.25;4972053;28;20066;-73
2022/01/29 00:38:50;;;;;;;83.00;31.35;;;;;;;-0.24;100.00;102216.38;4971719;28;20051;-73
2022/01/29 00:41:18;;;;;;;78.45;30.23;;;;;;;-0.34;100.00;102209.31;4971592;28;20050;-74
2022/01/29 00:43:46;;;;;;;74.45;29.67;;;;;;;-0.32;100.00;102217.22;4958899;28;20057;-73
2022/01/29 00:46:15;;;;;;;78.05;31.75;;;;;;;-0.37;100.00;102217.72;4972406;28;20057;-74
2022/01/29 00:48:42;;;;;;;79.65;29.38;;;;;;;-0.32;100.00;102220.75;4962335;28;20043;-73
2022/01/29 00:51:10;;;;;;;76.50;31.02;;;;;;;-0.24;100.00;102222.63;4967953;28;20066;-73
2022/01/29 00:53:38;;;;;;;76.50;28.63;;;;;;;-0.14;100.00;102241.28;4950527;28;20061;-73
2022/01/29 00:56:09;;;;;;;82.85;33.05;;;;;;;-0.12;100.00;102230.34;4958170;28;20059;-74
2022/01/29 00:58:37;;;;;;;83.18;31.48;;;;;;;-0.08;100.00;102232.56;4975289;28;20054;-73
2022/01/29 01:01:05;;;;;;;71.88;29.92;;;;;;;-0.22;100.00;102246.66;4974946;28;20062;-74
2022/01/29 01:03:33;;;;;;;73.15;29.27;;;;;;;-0.19;100.00;102257.91;4954030;28;20062;-73
2022/01/29 01:06:01;;;;;;;78.22;30.00;;;;;;;-0.12;100.00;102249.19;4965947;28;20105;-74
2022/01/29 01:08:29;;;;;;;78.60;29.98;;;;;;;-0.30;100.00;102256.41;4971527;28;20047;-73
2022/01/29 01:10:57;;;;;;;71.00;29.10;;;;;;;-0.41;100.00;102254.88;4964900;28;20794;-73
2022/01/29 01:13:25;;;;;;;65.03;27.92;;;;;;;-0.49;100.00;102257.53;4955279;28;20062;-73
2022/01/29 01:15:53;;;;;;;70.20;28.65;;;;;;;-0.46;100.00;102261.75;4973716;28;20058;-73
2022/01/29 01:18:21;;;;;;;68.57;30.08;;;;;;;-0.56;100.00;102267.28;4974832;28;20062;-73
2022/01/29 01:20:49;;;;;;;72.47;28.65;;;;;;;-0.66;100.00;102262.03;4975639;28;20042;-73
2022/01/29 01:23:17;;;;;;;70.85;31.02;;;;;;;-0.68;100.00;102262.19;4972356;28;20065;-73
2022/01/29 01:25:45;;;;;;;69.00;28.83;;;;;;;-0.69;100.00;102273.09;4955673;28;20059;-74
2022/01/29 01:28:14;;;;;;;64.40;30.05;;;;;;;-0.64;100.00;102269.94;4958309;28;20046;-73
2022/01/29 01:30:42;;;;;;;80.43;32.95;;;;;;;-0.51;100.00;102289.13;4961077;28;20053;-73
2022/01/29 01:33:10;;;;;;;77.85;32.40;;;;;;;-0.51;100.00;102288.28;4964404;28;20066;-73
2022/01/29 01:35:49;;;;;;;85.47;32.78;;;;;;;-0.65;100.00;102287.09;4974805;28;20511;-73
2022/01/29 01:38:22;;;;;;;76.93;33.80;;;;;;;-0.68;100.00;102269.44;4974335;28;20478;-73
2022/01/29 01:40:55;;;;;;;86.18;33.33;;;;;;;-0.70;100.00;102268.72;4974679;28;20051;-73
2022/01/29 01:43:23;;;;;;;86.93;34.10;;;;;;;-0.84;100.00;102265.66;4975084;28;20043;-73
2022/01/29 01:45:51;;;;;;;81.53;33.38;;;;;;;-0.92;100.00;102260.25;4974577;28;20073;-74
2022/01/29 01:48:19;;;;;;;88.93;34.42;;;;;;;-0.88;100.00;102263.47;4974095;28;20058;-73
2022/01/29 01:50:47;;;;;;;75.63;30.70;;;;;;;-0.88;100.00;102258.91;4975297;28;20046;-73
2022/01/29 01:53:16;;;;;;;72.72;31.25;;;;;;;-0.97;100.00;102251.84;4972459;28;20055;-73
2022/01/29 01:55:44;;;;;;;89.93;32.97;;;;;;;-0.99;100.00;102248.44;4953717;28;20043;-73
2022/01/29 01:58:11;;;;;;;67.63;29.63;;;;;;;-0.82;100.00;102242.13;4958994;28;20395;-73
2022/01/29 02:00:39;;;;;;;81.35;32.40;;;;;;;-0.60;100.00;102245.25;4971523;28;20398;-73
2022/01/29 02:03:08;;;;;;;82.30;33.33;;;;;;;-0.64;100.00;102243.88;4973643;28;20043;-73
2022/01/29 02:05:37;;;;;;;84.55;32.72;;;;;;;-0.75;100.00;102238.78;4957255;28;20058;-73
2022/01/29 02:08:08;;;;;;;79.00;33.05;;;;;;;-0.72;100.00;102230.41;4972821;28;20051;-73
2022/01/29 02:10:36;;;;;;;75.70;32.28;;;;;;;-0.66;100.00;102224.38;4973707;28;20055;-73
2022/01/29 02:13:05;;;;;;;68.25;31.48;;;;;;;-0.73;100.00;102224.19;4974573;28;20053;-73
2022/01/29 02:15:33;;;;;;;82.43;33.17;;;;;;;-0.86;100.00;102219.28;4974116;28;20414;-73
2022/01/29 02:18:01;;;;;;;76.90;30.35;;;;;;;-0.92;100.00;102227.16;4973892;28;20145;-74
2022/01/29 02:20:32;;;;;;;77.60;30.83;;;;;;;-0.76;100.00;102221.00;4974591;28;20047;-73
2022/01/29 02:23:00;;;;;;;85.65;31.88;;;;;;;-0.78;100.00;102215.75;4973020;28;20047;-73
2022/01/29 02:25:30;;;;;;;74.43;30.67;;;;;;;-0.86;100.00;102219.28;4954218;28;20058;-73
2022/01/29 02:28:05;;;;;;;68.65;28.27;;;;;;;-0.97;100.00;102217.72;4958659;28;20687;-73
2022/01/29 02:30:35;;;;;;;71.05;28.65;;;;;;;-1.00;100.00;102214.53;4973750;28;20050;-73
2022/01/29 02:33:06;;;;;;;63.88;27.33;;;;;;;-0.98;100.00;102220.59;4974037;28;20073;-73
2022/01/29 02:35:39;;;;;;;60.47;26.23;;;;;;;-1.04;100.00;102215.88;4973318;28;20054;-73
2022/01/29 02:38:09;;;;;;;72.65;27.95;;;;;;;-1.16;100.00;102215.31;4974126;28;20405;-73
2022/01/29 02:40:49;;;;;;;62.92;26.92;;;;;;;-1.23;100.00;102212.41;4974196;28;20433;-73
2022/01/29 02:43:27;;;;;;;60.60;25.15;;;;;;;-1.05;100.00;102217.72;4972791;28;20414;-73
2022/01/29 02:45:56;;;;;;;59.13;25.83;;;;;;;-1.15;100.00;102223.22;4956827;28;20038;-73
2022/01/29 02:48:24;;;;;;;55.10;23.65;;;;;;;-1.24;100.00;102222.31;4973088;28;20050;-73
2022/01/29 02:50:52;;;;;;;50.20;22.73;;;;;;;-1.06;100.00;102220.53;4970365;28;20043;-73
2022/01/29 02:53:20;;;;;;;61.03;24.60;;;;;;;-1.09;100.00;102225.25;4954191;28;20391;-73
2022/01/29 02:55:48;;;;;;;59.67;24.52;;;;;;;-1.17;100.00;102227.88;4971276;28;20508;-73
2022/01/29 02:58:16;;;;;;;47.35;21.88;;;;;;;-1.25;100.00;102225.16;4972808;28;20051;-73
2022/01/29 03:00:44;;;;;;;51.63;21.27;;;;;;;-1.32;100.00;102232.19;4973620;28;20039;-73
2022/01/29 03:03:12;;;;;;;50.40;23.42;;;;;;;-1.41;100.00;102229.44;4973044;28;20550;-73
2022/01/29 03:05:40;;;;;;;53.88;20.95;;;;;;;-1.44;100.00;102215.50;4973636;28;20047;-73
2022/01/29 03:08:08;;;;;;;56.33;24.05;;;;;;;-1.46;100.00;102214.81;4972680;28;20405;-73
2022/01/29 03:10:36;;;;;;;59.70;25.08;;;;;;;-1.45;100.00;102213.81;4972690;28;20524;-73
2022/01/29 03:13:05;;;;;;;61.03;24.55;;;;;;;-1.38;100.00;102214.84;4972558;28;20058;-73
2022/01/29 03:15:33;;;;;;;56.47;24.85;;;;;;;-1.40;100.00;102217.72;4968364;28;20073;-73
2022/01/29 03:18:01;;;;;;;58.40;25.42;;;;;;;-1.41;100.00;102213.31;4957039;28;20059;-73
2022/01/29 03:20:30;;;;;;;56.38;23.45;;;;;;;-1.46;100.00;102217.50;4955100;28;20066;-73
2022/01/29 03:22:59;;;;;;;56.65;24.70;;;;;;;-1.51;100.00;102217.97;4948191;28;20129;-73
2022/01/29 03:25:27;;;;;;;58.95;26.08;;;;;;;-1.60;100.00;102214.41;4947694;29;20047;-73
2022/01/29 03:27:54;;;;;;;53.55;22.75;;;;;;;-1.64;100.00;102210.34;4959580;28;20066;-73
2022/01/29 03:30:22;;;;;;;58.40;22.40;;;;;;;-1.67;100.00;102200.75;4973468;28;20046;-73
2022/01/29 03:32:50;;;;;;;61.05;23.23;;;;;;;-1.71;100.00;102191.34;4972242;28;20058;-73
2022/01/29 03:35:19;;;;;;;57.60;23.55;;;;;;;-1.73;100.00;102196.03;4973346;28;20066;-73
2022/01/29 03:37:47;;;;;;;52.58;23.27;;;;;;;-1.73;100.00;102198.72;4972978;28;20401;-73
2022/01/29 03:40:14;;;;;;;51.42;21.30;;;;;;;-1.78;100.00;102196.50;4972565;28;20449;-73
2022/01/29 03:42:58;;;;;;;48.63;21.00;;;;;;;-1.79;100.00;102193.97;4972066;28;20054;-73
2022/01/29 03:45:26;;;;;;;47.85;19.58;;;;;;;-1.82;100.00;102194.28;4972476;28;20062;-73
2022/01/29 03:47:54;;;;;;;44.42;18.98;;;;;;;-1.84;100.00;102210.56;4972476;28;20050;-73
2022/01/29 03:50:23;;;;;;;44.25;19.33;;;;;;;-1.82;100.00;102207.69;4972291;28;20058;-73
2022/01/29 03:52:51;;;;;;;45.42;19.10;;;;;;;-1.55;100.00;102213.91;4958609;28;20627;-73
2022/01/29 03:55:19;;;;;;;45.95;19.67;;;;;;;-1.58;100.00;102208.84;4964636;28;20062;-73
2022/01/29 03:57:47;;;;;;;39.85;19.38;;;;;;;-1.62;100.00;102208.34;4968887;28;20485;-73
2022/01/29 04:00:16;;;;;;;41.28;18.23;;;;;;;-1.65;99.85;102214.84;4971877;28;20077;-73
2022/01/29 04:02:44;;;;;;;43.58;17.20;;;;;;;-1.55;99.92;102222.84;4972056;28;20054;-73
2022/01/29 04:05:12;;;;;;;44.78;18.15;;;;;;;-1.59;100.00;102223.28;4972161;28;20070;-73
2022/01/29 04:07:41;;;;;;;43.65;18.10;;;;;;;-1.66;100.00;102223.91;4971918;28;20070;-73
2022/01/29 04:10:09;;;;;;;41.75;18.13;;;;;;;-1.70;100.00;102219.88;4972202;28;20051;-73
2022/01/29 04:12:42;;;;;;;41.75;16.38;;;;;;;-1.69;99.58;102228.75;4972854;28;20051;-73
2022/01/29 04:15:10;;;;;;;36.27;15.80;;;;;;;-1.71;99.34;102220.84;4972112;28;20086;-73
2022/01/29 04:17:38;;;;;;;37.20;17.00;;;;;;;-1.70;99.79;102214.50;4962911;28;20383;-73
2022/01/29 04:20:07;;;;;;;36.05;16.50;;;;;;;-1.63;99.22;102206.66;4957511;28;20461;-73
2022/01/29 04:22:35;;;;;;;34.95;14.55;;;;;;;-1.56;96.08;102202.31;4965959;28;20426;-73
2022/01/29 04:25:03;;;;;;;41.83;16.17;;;;;;;-1.56;97.89;102201.50;4963348;28;20046;-73
2022/01/29 04:27:36;;;;;;;39.67;15.82;;;;;;;-1.60;99.57;102200.13;4954604;28;20039;-73
2022/01/29 04:30:24;;;;;;;29.17;12.82;;;;;;;-1.65;98.82;102204.13;4951963;28;20043;-73
2022/01/29 04:35:20;;;;;;;31.83;12.50;;;;;;;-1.70;98.81;102209.16;4975646;28;20055;-73
2022/01/29 04:37:50;;;;;;;34.47;13.13;;;;;;;-1.70;95.99;102219.88;4975381;28;20055;-73
2022/01/29 04:40:19;;;;;;;27.77;12.00;;;;;;;-1.59;93.46;102215.22;4959281;28;20051;-73
2022/01/29 04:42:47;;;;;;;31.55;13.05;;;;;;;-1.28;91.43;102225.50;4975438;28;20078;-72
2022/01/29 04:45:15;;;;;;;28.35;12.32;;;;;;;-1.07;89.54;102219.72;4958566;28;20065;-73
2022/01/29 04:47:43;;;;;;;31.02;12.23;;;;;;;-1.10;89.09;102215.50;4975836;28;20058;-73
2022/01/29 04:50:11;;;;;;;31.70;12.25;;;;;;;-1.16;89.45;102202.72;4974008;28;20047;-73
2022/01/29 04:52:40;;;;;;;33.28;13.27;;;;;;;-1.25;91.31;102199.16;4956298;28;21308;-73
2022/01/29 04:55:09;;;;;;;30.33;13.50;;;;;;;-1.36;91.84;102207.50;4956123;28;20067;-73
2022/01/29 04:57:39;;;;;;;30.52;12.43;;;;;;;-1.41;91.15;102199.91;4968836;28;20058;-73
2022/01/29 05:00:19;;;;;;;29.52;11.27;;;;;;;-1.45;91.42;102198.56;4970942;28;20051;-73
2022/01/29 05:02:48;;;;;;;26.35;11.75;;;;;;;-1.41;88.32;102193.69;4955907;28;20055;-72
2022/01/29 05:05:17;;;;;;;24.38;9.10;;;;;;;-1.17;85.49;102192.94;4956592;29;20058;-73
2022/01/29 05:07:45;;;;;;;21.50;10.10;;;;;;;-1.18;86.55;102193.97;4955550;29;20043;-73
2022/01/29 05:10:14;;;;;;;22.73;9.45;;;;;;;-1.26;85.31;102192.06;4938829;29;20043;-73
2022/01/29 05:12:49;;;;;;;21.58;10.25;;;;;;;-1.30;87.14;102195.25;4956296;29;20047;-73
2022/01/29 05:28:56;;;;;;;16.63;8.80;;;;;;;-1.12;83.58;102208.63;4936480;29;20406;-73
2022/01/29 05:31:24;;;;;;;18.25;8.75;;;;;;;-1.19;84.58;102207.59;4956026;29;20047;-73
2022/01/29 05:33:52;;;;;;;22.30;9.15;;;;;;;-1.30;86.29;102206.00;4928318;29;20043;-73
2022/01/29 05:36:20;;;;;;;23.05;9.48;;;;;;;-1.39;87.09;102208.66;4939151;29;20058;-73
2022/01/29 05:38:48;;;;;;;22.65;8.48;;;;;;;-1.41;86.92;102210.63;4939018;29;20047;-73
2022/01/29 05:41:16;;;;;;;21.67;8.63;;;;;;;-1.48;86.79;102204.22;4952408;28;20058;-73
2022/01/29 05:43:44;;;;;;;23.92;9.63;;;;;;;-1.49;86.51;102207.91;4937978;29;20055;-73
2022/01/29 05:46:15;;;;;;;18.55;8.82;;;;;;;-1.50;87.94;102206.25;4952273;29;20048;-73
2022/01/29 05:48:43;;;;;;;23.67;9.85;;;;;;;-1.52;88.43;102208.25;4936497;29;20044;-72
2022/01/29 05:51:12;;;;;;;21.85;9.23;;;;;;;-1.56;88.30;102204.19;4914368;29;20055;-73
2022/01/29 05:53:40;;;;;;;24.13;9.88;;;;;;;-1.54;88.18;102215.59;4950958;29;20050;-73
2022/01/29 05:56:08;;;;;;;23.60;9.52;;;;;;;-1.54;89.26;102218.28;4954980;29;20062;-73
2022/01/29 05:58:36;;;;;;;20.10;9.57;;;;;;;-1.60;89.56;102209.03;4954933;29;20051;-72
2022/01/29 06:01:04;;;;;;;21.95;9.25;;;;;;;-1.59;88.53;102220.59;4958827;28;20051;-73
2022/01/29 06:03:32;;;;;;;29.38;10.85;;;;;;;-1.46;87.13;102229.09;4974941;28;20050;-73
2022/01/29 06:06:00;;;;;;;23.25;10.13;;;;;;;-1.44;86.27;102227.09;4973338;28;20070;-73
2022/01/29 06:08:28;;;;;;;26.85;10.85;;;;;;;-1.45;87.07;102241.53;4974463;28;20046;-73
2022/01/29 06:10:56;;;;;;;30.17;11.52;;;;;;;-1.50;87.75;102239.28;4956230;28;20051;-73
2022/01/29 06:13:24;;;;;;;27.80;11.23;;;;;;;-1.50;88.66;102235.78;4973899;28;20055;-73
2022/01/29 06:15:53;;;;;;;19.45;10.15;;;;;;;-1.25;87.28;102238.59;4973361;28;20058;-73
2022/01/29 06:18:23;;;;;;;31.05;11.85;;;;;;;-1.24;88.10;102251.88;4974843;28;20058;-73
2022/01/29 06:20:54;;;;;;;22.42;9.90;;;;;;;-1.26;87.38;102250.34;4957517;28;20062;-73
2022/01/29 06:23:30;;;;;;;18.30;8.05;;;;;;;-1.23;87.65;102266.13;4963930;28;20058;-73
2022/01/29 06:26:00;;;;;;;24.30;8.45;;;;;;;-0.88;83.61;102266.97;4946210;28;20052;-73
2022/01/29 06:28:28;;;;;;;17.15;7.75;;;;;;;-0.92;83.87;102279.09;4950888;29;20047;-73
2022/01/29 06:30:56;;;;;;;24.33;10.07;;;;;;;-0.95;84.24;102274.88;4953189;29;20046;-72
2022/01/29 06:33:24;;;;;;;24.05;10.85;;;;;;;-0.96;85.59;102272.34;4954609;29;20426;-72
2022/01/29 06:35:52;;;;;;;29.45;12.43;;;;;;;-1.09;86.64;102265.56;4953578;29;20058;-73
2022/01/29 06:38:21;;;;;;;27.30;11.60;;;;;;;-1.11;90.21;102270.22;4953710;29;20517;-73
2022/01/29 06:40:51;;;;;;;33.33;13.20;;;;;;;-1.22;88.24;102263.28;4949872;29;20523;-73
2022/01/29 06:43:21;;;;;;;30.88;13.27;;;;;;;-1.34;89.14;102272.63;4953833;29;20085;-73
2022/01/29 06:45:49;;;;;;;27.30;12.40;;;;;;;-1.24;88.88;102275.19;4950773;29;20062;-73
2022/01/29 06:48:17;;;;;;;31.92;13.15;;;;;;;-1.39;89.61;102286.53;4952911;29;20432;-73
2022/01/29 06:50:46;;;;;;;34.50;14.15;;;;;;;-1.42;90.59;102286.03;4951331;29;20486;-72
2022/01/29 06:53:16;;;;;;;35.50;13.75;;;;;;;-1.46;91.25;102280.13;4946543;28;20127;-73
2022/01/29 06:55:44;;;;;;;36.53;15.43;;;;;;;-1.50;90.57;102276.88;4947108;29;20055;-74
2022/01/29 06:58:12;;;;;;;27.70;13.13;;;;;;;-1.60;91.73;102281.53;4947339;29;20051;-73
2022/01/29 07:01:00;;;;;;;34.28;13.50;;;;;;;-1.59;91.25;102287.72;4957243;28;20035;-73
2022/01/29 07:03:28;;;;;;;33.50;14.98;;;;;;;-1.53;92.06;102298.69;4961617;28;20062;-73
2022/01/29 07:05:57;;;;;;;36.63;15.55;;;;;;;-1.55;92.09;102286.41;4952231;28;20051;-72
2022/01/29 07:08:25;;;;;;;30.85;15.23;;;;;;;-1.59;92.31;102282.34;4945033;29;20376;-73
2022/01/29 07:10:53;;;;;;;42.50;17.15;;;;;;;-1.49;92.65;102283.09;4952927;29;20039;-73
2022/01/29 07:13:22;;;;;;;29.52;15.25;;;;;;;-1.52;92.37;102291.50;4950300;29;20054;-72
2022/01/29 07:15:51;;;;;;;35.67;15.88;;;;;;;-1.41;92.24;102304.63;4917906;29;20078;-73
2022/01/29 07:18:19;;;;;;;33.95;16.02;;;;;;;-1.12;91.48;102310.72;4909135;29;20047;-72
2022/01/29 07:20:48;;;;;;;32.47;14.23;;;;;;;-1.02;89.57;102315.97;4897814;29;20048;-72
2022/01/29 07:23:16;;;;;;;32.70;14.52;;;;;;;-0.94;89.74;102324.06;4924451;29;20043;-72
2022/01/29 07:25:44;;;;;;;38.75;15.93;;;;;;;-0.83;89.33;102314.91;4942958;29;20390;-74
2022/01/29 07:28:12;;;;;;;39.53;16.35;;;;;;;-0.77;88.83;102324.16;4938837;29;20039;-74
2022/01/29 07:30:41;;;;;;;38.10;16.52;;;;;;;-0.64;88.96;102324.53;4945173;29;20039;-73
2022/01/29 07:33:09;;;;;;;36.88;16.20;;;;;;;-0.34;88.10;102325.00;4948450;29;20051;-73
2022/01/29 07:35:37;;;;;;;34.78;15.73;;;;;;;-0.19;87.65;102327.06;4947816;29;20393;-77
2022/01/29 07:38:12;;;;;;;40.28;16.17;;;;;;;0.17;88.87;102316.00;4944958;29;20055;-77
2022/01/29 07:40:41;;;;;;;36.65;16.33;;;;;;;0.52;85.35;102314.00;4943752;29;20043;-77
2022/01/29 07:43:09;;;;;;;33.25;14.60;;;;;;;0.68;84.85;102333.81;4949303;29;20524;-79
2022/01/29 07:45:37;;;;;;;35.17;14.98;;;;;;;0.76;84.34;102336.53;4931779;29;20821;-78
2022/01/29 07:48:05;;;;;;;33.22;15.82;;;;;;;0.94;83.34;102344.41;4940780;29;20043;-78
2022/01/29 07:50:34;;;;;;;34.53;15.20;;;;;;;0.93;81.55;102341.91;4945805;29;20046;-78
2022/01/29 07:53:02;;;;;;;35.58;16.63;;;;;;;1.04;80.47;102359.56;4950786;28;20060;-78
2022/01/29 07:55:31;;;;;;;33.33;16.23;;;;;;;1.16;79.91;102351.94;4971721;28;20141;-78
2022/01/29 07:58:01;;;;;;;40.50;16.45;;;;;;;0.97;80.01;102343.22;4972693;28;20047;-79
2022/01/29 08:00:35;;;;;;;35.72;15.82;;;;;;;1.02;82.06;102351.63;4955570;28;20053;-79
2022/01/29 08:03:04;;;;;;;37.08;17.52;;;;;;;1.19;81.76;102357.00;4955924;28;20069;-78
2022/01/29 08:05:34;;;;;;;32.28;16.05;;;;;;;1.30;82.57;102359.31;4974336;28;20055;-78
2022/01/29 08:08:02;;;;;;;38.95;16.98;;;;;;;1.42;82.11;102367.88;4959468;28;20062;-78
2022/01/29 08:10:30;;;;;;;36.40;16.08;;;;;;;1.37;82.16;102348.66;4976696;28;20398;-78
2022/01/29 08:12:58;;;;;;;36.72;16.17;;;;;;;1.39;82.07;102351.19;4959641;28;20050;-78
2022/01/29 08:15:26;;;;;;;36.30;15.85;;;;;;;1.52;81.67;102348.75;4967871;28;20047;-79
2022/01/29 08:17:54;;;;;;;33.05;15.65;;;;;;;1.76;81.73;102352.38;4959567;28;20054;-78
2022/01/29 08:20:22;;;;;;;42.05;17.27;;;;;;;1.85;80.40;102356.72;4976169;28;20055;-77
2022/01/29 08:22:51;;;;;;;34.90;15.32;;;;;;;1.93;81.32;102347.72;4968368;28;20073;-78
2022/01/29 08:25:18;;;;;;;34.00;15.38;;;;;;;1.83;81.87;102347.09;4959362;28;20050;-78
2022/01/29 08:27:47;;;;;;;33.47;15.90;;;;;;;1.77;80.85;102337.03;4969692;28;20050;-77
2022/01/29 08:30:15;;;;;;;37.80;16.13;;;;;;;1.93;81.92;102341.47;4959106;28;20062;-77
2022/01/29 08:32:43;;;;;;;32.95;15.57;;;;;;;1.92;81.07;102331.69;4963635;28;20499;-76
2022/01/29 08:35:14;;;;;;;36.70;17.40;;;;;;;2.23;80.94;102342.47;4975686;28;20410;-67
2022/01/29 08:37:44;;;;;;;33.17;16.52;;;;;;;2.30;79.47;102337.19;4976476;28;20051;-67
2022/01/29 08:40:13;;;;;;;34.88;15.60;;;;;;;2.51;79.26;102341.06;4975482;28;20433;-67
2022/01/29 08:42:41;;;;;;;33.72;16.65;;;;;;;2.57;78.88;102331.38;4972285;28;20047;-67
2022/01/29 08:45:10;;;;;;;33.05;15.52;;;;;;;2.67;78.49;102338.22;4973663;28;20051;-67
2022/01/29 08:47:40;;;;;;;36.25;16.02;;;;;;;2.92;77.34;102340.69;4965931;28;20061;-67
2022/01/29 08:50:11;;;;;;;32.53;15.77;;;;;;;3.00;76.12;102342.47;4975892;28;20043;-67
2022/01/29 08:52:40;;;;;;;34.72;15.55;;;;;;;2.89;75.21;102338.31;4976175;28;20078;-67
2022/01/29 08:55:09;;;;;;;29.83;15.68;;;;;;;3.01;74.81;102349.53;4975954;28;20043;-67
2022/01/29 08:57:38;;;;;;;34.95;15.57;;;;;;;3.08;73.80;102360.47;4976113;28;20058;-67
2022/01/29 09:00:10;;;;;;;33.15;15.65;;;;;;;3.26;74.60;102367.34;4949442;28;20051;-67
2022/01/29 09:02:38;;;;;;;30.60;15.23;;;;;;;3.44;74.17;102367.84;4975805;28;20042;-67
2022/01/29 09:05:07;;;;;;;33.55;16.00;;;;;;;3.45;72.95;102371.38;4975030;28;20065;-67
2022/01/29 09:07:35;;;;;;;34.42;15.75;;;;;;;3.57;73.14;102369.03;4975648;28;20050;-68
2022/01/29 09:10:04;;;;;;;35.05;15.55;;;;;;;3.60;73.84;102374.06;4975260;28;20422;-68
2022/01/29 09:12:33;;;;;;;33.90;15.77;;;;;;;3.92;73.28;102371.13;4974827;28;20062;-76
2022/01/29 09:15:01;;;;;;;37.10;15.70;;;;;;;3.88;72.05;102367.94;4920315;28;20055;-76
2022/01/29 09:17:29;;;;;;;34.10;16.25;;;;;;;3.96;72.44;102367.00;4915108;28;20062;-76
2022/01/29 09:19:57;;;;;;;30.65;16.30;;;;;;;4.09;73.14;102371.72;4907244;29;20050;-75
2022/01/29 09:22:25;;;;;;;35.05;16.80;;;;;;;4.28;73.07;102367.53;4896902;28;20403;-76
2022/01/29 09:24:53;;;;;;;36.42;15.48;;;;;;;4.29;72.79;102355.66;4922998;29;20039;-76
2022/01/29 09:27:22;;;;;;;34.92;16.77;;;;;;;4.37;72.04;102358.25;4918853;28;20058;-76
2022/01/29 09:29:50;;;;;;;32.20;15.73;;;;;;;4.36;70.31;102363.88;4941067;28;20066;-76
2022/01/29 09:32:18;;;;;;;40.13;16.50;;;;;;;4.50;71.21;102365.66;4924500;28;20059;-76
2022/01/29 09:34:46;;;;;;;32.05;16.52;;;;;;;4.52;70.30;102370.88;4924797;28;20070;-76
2022/01/29 09:37:15;;;;;;;31.63;16.45;;;;;;;4.62;70.36;102354.28;4924651;28;20051;-75
2022/01/29 09:39:43;;;;;;;30.77;15.85;;;;;;;4.70;69.71;102354.16;4941538;28;20053;-76
2022/01/29 09:42:11;;;;;;;32.63;16.58;;;;;;;4.80;65.32;102351.91;4925845;28;20047;-76
2022/01/29 09:44:41;;;;;;;31.17;15.57;;;;;;;4.88;67.08;102344.69;4925862;28;20051;-75
2022/01/29 09:47:10;;;;;;;31.38;15.93;;;;;;;4.92;68.05;102344.09;4925786;28;20405;-76
2022/01/29 09:49:38;;;;;;;33.35;16.30;;;;;;;5.05;66.76;102339.78;4925957;28;20055;-76
2022/01/29 09:52:06;;;;;;;33.70;16.27;;;;;;;5.19;65.15;102343.41;4925770;28;20058;-76
2022/01/29 09:54:35;;;;;;;36.58;18.30;;;;;;;5.27;64.73;102335.09;4932652;28;20491;-74
2022/01/29 09:57:03;;;;;;;37.30;17.30;;;;;;;5.75;65.38;102328.84;4957433;28;20063;-74
2022/01/29 09:59:31;;;;;;;35.05;17.92;;;;;;;5.95;63.31;102332.66;4941675;28;20244;-74
2022/01/29 10:02:00;;;;;;;32.30;16.90;;;;;;;5.95;61.36;102328.03;4941679;28;20144;-73
2022/01/29 10:04:52;;;;;;;38.50;18.55;;;;;;;6.38;61.58;102335.06;4956699;28;20148;-74
2022/01/29 10:07:28;;;;;;;44.40;19.15;;;;;;;6.51;62.43;102330.66;4973193;28;20054;-73
2022/01/29 10:09:57;;;;;;;37.80;18.08;;;;;;;6.79;61.42;102319.53;4974260;28;20039;-73
2022/01/29 10:12:28;;;;;;;36.33;18.75;;;;;;;7.22;61.87;102317.34;4974083;28;20051;-74
2022/01/29 10:15:01;;;;;;;38.30;18.75;;;;;;;7.19;62.12;102318.63;4974030;28;20402;-73
2022/01/29 10:17:41;;;;;;;43.75;20.02;;;;;;;7.49;60.73;102317.25;4973004;28;20055;-73
2022/01/29 10:20:15;;;;;;;40.60;20.00;;;;;;;7.16;61.14;102318.22;4959409;28;20042;-73
2022/01/29 10:22:46;;;;;;;;;;;;;;;7.20;62.24;102325.75;4974541;28;20047;-74
2022/01/29 10:25:30;;;;;;;45.25;21.08;;;;;;;7.26;61.71;102308.56;4973887;28;19945;-74
2022/01/29 10:28:11;;;;;;;49.85;22.10;;;;;;;7.43;61.57;102312.69;4972954;28;20413;-76
2022/01/29 10:30:51;;;;;;;49.00;21.48;;;;;;;7.43;60.90;102318.13;4973980;28;20132;-74
2022/01/29 10:33:25;;;;;;;50.58;22.83;;;;;;;7.39;62.39;102323.19;4971673;28;20072;-74
2022/01/29 10:36:17;;;;;;;54.65;22.70;;;;;;;7.47;62.02;102313.91;4955660;28;20120;-74
2022/01/29 10:38:57;;;;;;;53.80;23.80;;;;;;;7.55;60.75;102299.19;4967479;28;20039;-75
2022/01/29 10:41:30;;;;;;;52.97;23.95;;;;;;;7.76;60.11;102290.72;4973995;28;20051;-74
2022/01/29 10:46:43;;;;;;;49.10;22.48;;;;;;;7.80;59.16;102291.97;4955658;28;20058;-74
2022/01/29 10:49:23;;;;;;;49.45;23.17;;;;;;;7.83;57.86;102282.50;4968210;28;20042;-73
2022/01/29 10:52:03;;;;;;;49.42;21.33;;;;;;;7.64;59.00;102276.13;4973740;28;20058;-75
2022/01/29 10:54:33;;;;;;;45.83;21.45;;;;;;;7.78;57.19;102264.06;4954095;28;20066;-75
2022/01/29 10:57:05;;;;;;;49.92;22.15;;;;;;;7.87;57.55;102269.28;4954318;29;20066;-75
2022/01/29 10:59:36;;;;;;;51.67;20.75;;;;;;;8.10;56.95;102262.38;4937198;29;20047;-75
2022/01/29 11:02:09;;;;;;;49.85;22.02;;;;;;;8.29;58.56;102257.81;4954476;29;20047;-75
2022/01/29 11:04:39;;;;;;;52.97;22.43;;;;;;;8.41;56.95;102252.50;4950271;29;20050;-74
2022/01/29 11:07:10;;;;;;;56.35;23.33;;;;;;;8.25;56.31;102245.72;4952202;29;20763;-73
2022/01/29 11:09:41;;;;;;;52.95;22.10;;;;;;;7.87;57.21;102247.47;4952887;29;20044;-74
2022/01/29 11:12:11;;;;;;;54.40;23.17;;;;;;;8.00;59.70;102247.34;4946008;29;20050;-75
2022/01/29 11:14:41;;;;;;;46.58;22.27;;;;;;;8.19;58.13;102239.25;4939185;29;20675;-79
2022/01/29 11:17:10;;;;;;;53.80;24.15;;;;;;;8.13;56.91;102218.31;4944233;29;20047;-76
2022/01/29 11:19:40;;;;;;;55.08;22.75;;;;;;;8.08;59.15;102221.72;4940895;29;20066;-76
2022/01/29 11:22:09;;;;;;;56.38;23.27;;;;;;;8.16;57.71;102224.16;4931184;29;20047;-76
2022/01/29 11:24:41;;;;;;;55.20;23.02;;;;;;;8.54;57.55;102208.72;4941166;29;20047;-75
2022/01/29 11:27:26;;;;;;;61.42;24.83;;;;;;;8.51;56.67;102208.31;4953881;29;20382;-75
2022/01/29 11:30:10;;;;;;;52.20;22.83;;;;;;;8.38;56.79;102209.28;4946158;29;20380;-75
2022/01/29 11:32:54;;;;;;;59.85;23.95;;;;;;;8.62;57.88;102193.97;4946464;29;20043;-76
2022/01/29 11:35:26;;;;;;;57.95;25.42;;;;;;;8.39;57.04;102203.59;4954082;29;20039;-76
2022/01/29 11:38:03;;;;;;;52.60;23.27;;;;;;;8.42;57.11;102205.03;4946471;29;20059;-77
2022/01/29 11:40:38;;;;;;;58.60;26.02;;;;;;;8.53;57.33;102196.16;4933143;29;20051;-76